Kivalina Airport
PAVL : now visible

Airfield :











YOU CAN JOIN US ON...

 
LOGIN :

Register | Disclaimer

   EN    FR    IT 

 









Legend :    VFR   Marginal VFR   IFR   Intensive IFR   Very Intensive IFR
Visi :
Ceiling :
>= 8 km
>= 3000ft
5 to 8 km
1000 to 3000 ft
1500m to 5 km
500 to 1000 ft
800 to 1500m
200 to 500 ft
< 800m
< 200 ft
Symbols :   Thunderstorms  Fog  Heavy snow  Heavy precipitations  Wind > 20 kt






- Airport Elevation : 13 ft
- IATA code : KVL


PAVL - Kivalina

CURRENT METAR :
  • 020712Z AUTO 15013KT 1 3/4SM -SN OVC020 02/M08 A3002 RMK AO2 P0000 T00221083 TSNO

EXPIRED METARs :
  • 020700Z AUTO 14010KT 2SM -SN OVC020 03/M08 A3002 RMK AO2 P0000 T00281083 TSNO
  • 020639Z AUTO 14010KT 1 3/4SM -SN OVC020 03/M08 A3003 RMK AO2 P0000 T00281083 TSNO
  • 020629Z AUTO 14009KT 2SM -SN OVC024 02/M08 A3003 RMK AO2 P0000 T00171083 TSNO
  • 020602Z AUTO 13012KT 1 1/4SM -SN OVC028 01/M08 A3004 RMK AO2 P0000 T00111078 TSNO
  • 020550Z AUTO 12013G18KT 2SM -SN OVC027 01/M08 A3004 RMK AO2 P0000 TSNO
  • 020453Z AUTO 13008KT 1 1/4SM -SN BKN027 OVC035 03/M08 A3006 RMK AO2 SLP178 P0000 T00331078 TSNO

TAF N/A



MET'MAP, your aeronautical weather chart ! - Copyright ORBIFLY December 2007 - Disclaimer

ORBIFLY MET'MAP TEAM :

Programming & Development : Alexandra Zaïnal
Concept & original design : Baudouin d'Aumeries
Assistance for programming : Marc-Olivier Méhu
Technical & hardware support : Manuel Goepfert

Contact : metmap@orbifly.com




SOURCES & CREDITS :

   NOAA       Earth
Advisory